Time;durP1;ratioP1;P1;durP2;ratioP2;P2;SDS_P1;SDS_P2;PMS_P1;PMS_P2;Temp;Humidity;BMP_temperature;BMP_pressure;BME280_temperature;BME280_humidity;BME280_pressure;Samples;Min_cycle;Max_cycle;Signal;HPM_P1;HPM_P2
2022/03/15 00:00:09;;;;;;;32.20;20.33;;;;;;;9.58;62.40;102728.53;5025925;28;20037;-64
2022/03/15 00:02:34;;;;;;;25.80;19.60;;;;;;;9.57;62.13;102718.53;5028964;28;20386;-64
2022/03/15 00:04:59;;;;;;;26.25;20.17;;;;;;;9.65;62.62;102716.66;5030788;28;20033;-64
2022/03/15 00:07:26;;;;;;;31.80;21.13;;;;;;;9.59;62.74;102718.34;5031252;28;20546;-64
2022/03/15 00:09:51;;;;;;;26.08;20.73;;;;;;;9.59;63.12;102719.19;5031239;28;20107;-64
2022/03/15 00:12:17;;;;;;;30.23;21.10;;;;;;;9.58;62.45;102719.38;5030980;28;20473;-64
2022/03/15 00:14:44;;;;;;;29.35;21.25;;;;;;;9.55;62.24;102715.13;5031486;28;20029;-64
2022/03/15 00:17:09;;;;;;;31.00;21.60;;;;;;;9.53;62.87;102716.34;5030704;28;20032;-64
2022/03/15 00:19:34;;;;;;;29.92;22.50;;;;;;;9.55;63.13;102714.25;5030185;28;20025;-64
2022/03/15 00:22:02;;;;;;;28.10;22.70;;;;;;;9.50;62.40;102706.50;5030430;28;20120;-64
2022/03/15 00:24:28;;;;;;;31.35;22.45;;;;;;;9.46;62.93;102702.44;5030886;28;20559;-64
2022/03/15 00:26:54;;;;;;;34.15;23.15;;;;;;;9.49;62.90;102701.19;5030891;28;20030;-64
2022/03/15 00:29:23;;;;;;;29.25;21.63;;;;;;;9.51;63.20;102701.81;5028545;28;20112;-63
2022/03/15 00:31:48;;;;;;;29.85;22.92;;;;;;;9.57;62.47;102701.88;5031817;28;20060;-63
2022/03/15 00:34:14;;;;;;;33.58;22.25;;;;;;;9.55;62.90;102704.03;5030619;28;20477;-63
2022/03/15 00:36:41;;;;;;;33.20;21.95;;;;;;;9.48;62.94;102708.66;5030214;28;20078;-64
2022/03/15 00:39:07;;;;;;;35.83;22.67;;;;;;;9.45;63.15;102713.72;5030242;28;20026;-64
2022/03/15 00:41:33;;;;;;;29.25;21.67;;;;;;;9.44;62.75;102704.56;5030192;28;20404;-64
2022/03/15 00:43:58;;;;;;;32.08;21.35;;;;;;;9.43;62.65;102711.19;5039157;28;20092;-64
2022/03/15 00:46:26;;;;;;;31.55;21.20;;;;;;;9.47;62.98;102701.41;5029736;28;20033;-63
2022/03/15 00:48:51;;;;;;;29.20;20.45;;;;;;;9.50;62.50;102700.97;5030231;28;20021;-63
2022/03/15 00:51:17;;;;;;;26.60;19.10;;;;;;;9.47;62.74;102700.50;5031287;28;20420;-63
2022/03/15 00:53:42;;;;;;;26.67;20.55;;;;;;;9.44;62.65;102699.03;5030338;28;20029;-63
2022/03/15 00:56:07;;;;;;;29.17;19.55;;;;;;;9.43;63.08;102693.66;5036180;28;20436;-63
2022/03/15 00:58:33;;;;;;;26.20;19.73;;;;;;;9.41;62.53;102696.66;5030132;28;20103;-63
2022/03/15 01:00:59;;;;;;;29.13;19.83;;;;;;;9.33;63.25;102691.25;5022520;28;20487;-63
2022/03/15 01:03:24;;;;;;;28.27;20.17;;;;;;;9.33;62.83;102696.78;5029910;28;20539;-63
2022/03/15 01:05:50;;;;;;;28.65;19.92;;;;;;;9.30;63.30;102689.72;5031409;28;20056;-63
2022/03/15 01:08:16;;;;;;;25.23;19.77;;;;;;;9.29;62.95;102693.56;5029855;28;20032;-63
2022/03/15 01:10:43;;;;;;;25.40;18.95;;;;;;;9.26;63.34;102693.94;5028067;28;20384;-63
2022/03/15 01:13:09;;;;;;;29.60;19.27;;;;;;;9.25;63.09;102696.94;5025190;28;20763;-63
2022/03/15 01:15:41;;;;;;;27.50;19.52;;;;;;;9.26;62.91;102699.50;5027126;28;20084;-63
2022/03/15 01:18:07;;;;;;;24.38;18.98;;;;;;;9.26;63.10;102693.09;5025279;28;20032;-63
2022/03/15 01:20:33;;;;;;;25.75;18.48;;;;;;;9.24;63.24;102695.22;5030515;28;20017;-63
2022/03/15 01:22:58;;;;;;;24.52;18.90;;;;;;;9.21;63.19;102695.63;5028789;28;20065;-63
2022/03/15 01:25:23;;;;;;;29.60;18.88;;;;;;;9.20;63.06;102694.75;5031835;28;20469;-63
2022/03/15 01:27:49;;;;;;;24.38;18.52;;;;;;;9.26;63.05;102693.94;5029832;28;20072;-63
2022/03/15 01:30:14;;;;;;;29.10;17.80;;;;;;;9.26;63.20;102682.00;5029322;28;20483;-63
2022/03/15 01:32:40;;;;;;;23.60;18.42;;;;;;;9.26;63.24;102676.47;5027464;28;20026;-63
2022/03/15 01:35:08;;;;;;;23.20;17.98;;;;;;;9.23;62.89;102677.72;5012456;28;20433;-63
2022/03/15 01:37:33;;;;;;;22.48;17.20;;;;;;;9.24;63.48;102673.91;5038517;28;20038;-63
2022/03/15 01:39:59;;;;;;;23.42;17.35;;;;;;;9.19;63.57;102665.31;5029864;28;20033;-63
2022/03/15 01:42:24;;;;;;;27.50;17.20;;;;;;;9.18;62.83;102662.75;5027341;28;20041;-63
2022/03/15 01:44:50;;;;;;;22.45;16.88;;;;;;;9.22;63.27;102666.84;5029803;28;20515;-63
2022/03/15 01:47:17;;;;;;;21.42;16.02;;;;;;;9.15;63.08;102658.47;5029494;28;20037;-63
2022/03/15 01:49:42;;;;;;;21.90;15.68;;;;;;;9.16;62.73;102665.75;5029923;28;20032;-63
2022/03/15 01:52:12;;;;;;;22.67;16.48;;;;;;;9.14;63.17;102659.53;5030977;28;20033;-64
2022/03/15 01:54:39;;;;;;;24.40;16.42;;;;;;;9.08;63.41;102658.44;5034509;28;20029;-64
2022/03/15 01:57:07;;;;;;;21.77;16.23;;;;;;;9.10;63.34;102659.06;5035774;28;20034;-63
2022/03/15 01:59:33;;;;;;;23.50;15.40;;;;;;;9.14;62.67;102650.38;5032603;28;20488;-63
2022/03/15 02:01:58;;;;;;;23.13;15.77;;;;;;;9.14;62.82;102654.00;5033206;28;20029;-64
2022/03/15 02:04:24;;;;;;;20.40;16.40;;;;;;;9.13;63.31;102652.28;5033108;28;20100;-63
2022/03/15 02:07:02;;;;;;;24.38;16.40;;;;;;;9.16;63.03;102649.13;5032934;28;20037;-63
2022/03/15 02:09:27;;;;;;;25.13;15.25;;;;;;;9.10;62.86;102661.84;5032933;28;20119;-63
2022/03/15 02:11:55;;;;;;;20.67;14.95;;;;;;;9.07;62.44;102653.91;5033019;28;20073;-63
2022/03/15 02:14:21;;;;;;;21.35;15.00;;;;;;;9.03;63.14;102649.84;5033760;28;20126;-63
2022/03/15 02:16:47;;;;;;;23.75;15.52;;;;;;;9.04;63.00;102648.81;5033044;28;20045;-63
2022/03/15 02:19:12;;;;;;;21.85;15.20;;;;;;;9.03;62.46;102654.53;5032779;28;20049;-63
2022/03/15 02:21:38;;;;;;;22.23;15.20;;;;;;;9.01;62.97;102643.66;5033387;28;20388;-63
2022/03/15 02:24:06;;;;;;;23.45;15.13;;;;;;;9.05;63.40;102635.81;5031313;28;20053;-63
2022/03/15 02:26:32;;;;;;;19.52;14.45;;;;;;;9.06;62.82;102629.22;5032137;28;20065;-63
2022/03/15 02:28:57;;;;;;;22.85;14.90;;;;;;;9.02;62.95;102631.50;5032991;28;20103;-63
2022/03/15 02:31:22;;;;;;;23.38;14.98;;;;;;;9.06;62.85;102624.50;5032423;28;20026;-63
2022/03/15 02:33:48;;;;;;;24.55;15.20;;;;;;;9.07;63.17;102623.44;5032424;28;20033;-63
2022/03/15 02:36:15;;;;;;;24.67;14.40;;;;;;;9.05;62.97;102624.72;5031807;28;20587;-63
2022/03/15 02:38:41;;;;;;;20.50;14.80;;;;;;;9.02;63.01;102623.22;5028381;28;20036;-64
2022/03/15 02:41:06;;;;;;;22.02;13.90;;;;;;;9.04;63.01;102618.34;5032579;28;20111;-63
2022/03/15 02:43:32;;;;;;;23.05;15.77;;;;;;;9.01;62.69;102624.28;5027465;28;20071;-63
2022/03/15 02:45:57;;;;;;;23.45;15.20;;;;;;;9.02;62.53;102623.22;5026109;28;20057;-64
2022/03/15 02:48:22;;;;;;;21.63;14.90;;;;;;;9.01;63.10;102621.50;5033196;28;20387;-63
2022/03/15 02:50:48;;;;;;;23.77;14.68;;;;;;;8.96;62.74;102620.38;5032847;28;20040;-63
2022/03/15 02:53:14;;;;;;;21.33;15.27;;;;;;;8.99;62.67;102608.91;5032288;28;20505;-63
2022/03/15 02:55:39;;;;;;;21.33;13.80;;;;;;;9.00;62.62;102608.72;5033426;28;20032;-63
2022/03/15 02:58:04;;;;;;;19.65;14.32;;;;;;;9.01;62.99;102607.66;5030823;28;20067;-63
2022/03/15 03:00:30;;;;;;;21.38;14.85;;;;;;;8.97;62.82;102613.78;5018857;28;20053;-63
2022/03/15 03:02:56;;;;;;;19.67;14.63;;;;;;;8.96;63.19;102596.31;5032041;28;20425;-63
2022/03/15 03:05:21;;;;;;;20.98;14.23;;;;;;;8.98;62.54;102593.34;5021356;28;20025;-63
2022/03/15 03:07:47;;;;;;;20.80;14.23;;;;;;;8.97;63.38;102583.34;5031963;28;20156;-63
2022/03/15 03:10:14;;;;;;;20.90;14.95;;;;;;;8.97;62.99;102578.66;5033137;28;20087;-63
2022/03/15 03:12:41;;;;;;;19.73;14.35;;;;;;;8.96;63.11;102585.25;5031854;28;20040;-63
2022/03/15 03:15:09;;;;;;;21.48;14.05;;;;;;;9.00;62.71;102581.03;5031294;28;20038;-63
2022/03/15 03:17:42;;;;;;;22.17;15.02;;;;;;;8.97;62.48;102583.34;5018034;28;20416;-63
2022/03/15 03:20:12;;;;;;;;;;;;;;;9.21;61.63;102571.78;5031329;28;20551;-63
2022/03/15 03:22:39;;;;;;;23.42;14.68;;;;;;;9.02;62.26;102570.59;5031553;28;19939;-64
2022/03/15 03:25:08;;;;;;;25.00;14.95;;;;;;;9.05;62.48;102575.72;5031660;28;20032;-64
2022/03/15 03:27:33;;;;;;;23.13;15.38;;;;;;;9.04;62.14;102568.47;5031996;28;20030;-63
2022/03/15 03:30:03;;;;;;;21.63;14.38;;;;;;;9.01;62.42;102568.88;5031297;28;20047;-63
2022/03/15 03:32:29;;;;;;;25.20;15.15;;;;;;;9.00;62.46;102569.06;5032434;28;20120;-63
2022/03/15 03:34:58;;;;;;;21.95;14.27;;;;;;;8.93;62.87;102566.25;5031168;28;20037;-64
2022/03/15 03:37:25;;;;;;;18.95;14.00;;;;;;;8.93;63.13;102569.03;5031547;28;20037;-63
2022/03/15 03:39:53;;;;;;;22.05;14.52;;;;;;;8.93;62.55;102557.09;5031823;28;20029;-64
2022/03/15 03:42:18;;;;;;;18.88;14.95;;;;;;;8.92;63.03;102560.91;5024443;28;20025;-64
2022/03/15 03:44:44;;;;;;;20.77;14.95;;;;;;;8.92;62.78;102567.31;5032005;28;20034;-65
2022/03/15 03:47:13;;;;;;;21.88;15.00;;;;;;;8.93;63.20;102571.78;5031738;28;20075;-64
2022/03/15 03:49:39;;;;;;;19.95;14.70;;;;;;;8.94;62.88;102570.72;5031213;28;20473;-63
2022/03/15 03:52:06;;;;;;;22.13;14.50;;;;;;;8.94;62.36;102572.66;5032048;28;20116;-63
2022/03/15 03:54:32;;;;;;;20.48;14.27;;;;;;;8.94;62.09;102572.66;5030891;28;20455;-64
2022/03/15 03:57:00;;;;;;;21.15;14.63;;;;;;;8.97;62.75;102562.03;5030635;28;20030;-64
2022/03/15 03:59:25;;;;;;;22.20;14.75;;;;;;;8.97;62.36;102562.03;5031450;28;20042;-63
2022/03/15 04:01:51;;;;;;;20.05;14.13;;;;;;;8.93;62.29;102554.31;5031768;28;20044;-64
2022/03/15 04:04:16;;;;;;;19.67;14.27;;;;;;;8.94;62.23;102561.56;5030450;28;20044;-64
2022/03/15 04:06:41;;;;;;;23.77;14.43;;;;;;;8.89;62.40;102562.19;5031713;28;20037;-64
2022/03/15 04:09:11;;;;;;;18.83;14.30;;;;;;;8.88;62.40;102565.97;5031509;28;20029;-64
2022/03/15 04:11:40;;;;;;;19.65;14.82;;;;;;;8.78;62.67;102565.47;5023602;28;20066;-64
2022/03/15 04:14:11;;;;;;;21.15;14.85;;;;;;;8.75;63.21;102566.72;5030436;28;20064;-64
2022/03/15 04:16:37;;;;;;;23.65;15.23;;;;;;;8.73;62.38;102570.78;5028142;28;20032;-64
2022/03/15 04:19:02;;;;;;;20.38;15.02;;;;;;;8.68;62.71;102559.41;5030878;28;20484;-64
2022/03/15 04:21:28;;;;;;;23.60;15.05;;;;;;;8.75;63.14;102568.63;5031658;28;20045;-64
2022/03/15 04:23:56;;;;;;;20.83;15.45;;;;;;;8.70;63.00;102571.16;5029992;28;20056;-64
2022/03/15 04:26:22;;;;;;;19.92;14.57;;;;;;;8.67;63.10;102569.63;5031482;28;20029;-64
2022/03/15 04:28:47;;;;;;;20.95;15.07;;;;;;;8.64;63.01;102567.25;5030628;28;20026;-64
2022/03/15 04:31:13;;;;;;;19.05;15.23;;;;;;;8.63;63.21;102565.56;5030487;28;20075;-64
2022/03/15 04:33:38;;;;;;;20.00;14.75;;;;;;;8.64;63.47;102569.16;5019248;28;20427;-64
2022/03/15 04:36:04;;;;;;;21.73;15.02;;;;;;;8.70;62.61;102565.63;5011589;28;20127;-63
2022/03/15 04:38:29;;;;;;;21.02;15.15;;;;;;;8.70;62.61;102571.16;5018101;28;20140;-63
2022/03/15 04:40:54;;;;;;;20.48;14.45;;;;;;;8.69;62.79;102566.69;5030614;28;20139;-63
2022/03/15 04:43:20;;;;;;;20.33;14.40;;;;;;;8.67;63.21;102566.00;5028666;28;20353;-63
2022/03/15 04:45:45;;;;;;;19.73;14.48;;;;;;;8.61;63.21;102556.59;5029388;28;20092;-63
2022/03/15 04:48:10;;;;;;;21.48;14.52;;;;;;;8.60;62.90;102546.56;5029631;28;20021;-63
2022/03/15 04:50:36;;;;;;;18.80;15.20;;;;;;;8.53;63.10;102552.06;5022551;28;20026;-64
2022/03/15 04:53:01;;;;;;;23.02;15.23;;;;;;;8.56;63.38;102554.41;5030149;28;20380;-63
2022/03/15 04:55:27;;;;;;;21.38;13.88;;;;;;;8.51;63.25;102551.38;5023786;28;20488;-63
2022/03/15 04:57:52;;;;;;;22.10;14.27;;;;;;;8.48;63.56;102554.53;5015111;28;20042;-64
2022/03/15 05:00:18;;;;;;;17.67;13.88;;;;;;;8.50;63.87;102549.69;5030628;28;20075;-63
2022/03/15 05:02:44;;;;;;;18.23;13.50;;;;;;;8.49;63.75;102545.22;5029613;28;20384;-64
2022/03/15 05:05:12;;;;;;;21.05;13.77;;;;;;;8.48;63.50;102537.94;5030645;28;20026;-63
2022/03/15 05:07:38;;;;;;;16.73;13.00;;;;;;;8.49;63.24;102541.56;5023449;28;20048;-63
2022/03/15 05:12:48;;;;;;;18.60;13.68;;;;;;;8.52;63.41;102539.25;5030918;28;20045;-63
2022/03/15 05:15:13;;;;;;;17.80;13.45;;;;;;;8.53;63.32;102532.69;5029133;28;20029;-63
2022/03/15 05:17:38;;;;;;;19.27;13.25;;;;;;;8.54;63.11;102531.63;5030143;28;20029;-63
2022/03/15 05:20:05;;;;;;;22.88;13.07;;;;;;;8.54;63.48;102528.84;5029590;28;20040;-63
2022/03/15 05:22:33;;;;;;;17.92;13.15;;;;;;;8.49;63.80;102534.13;5029405;28;20026;-64
2022/03/15 05:24:59;;;;;;;18.23;13.82;;;;;;;8.46;63.30;102537.28;5010984;28;20481;-64
2022/03/15 05:27:26;;;;;;;20.52;13.68;;;;;;;8.44;63.74;102533.84;5030080;28;20388;-63
2022/03/15 05:29:52;;;;;;;26.63;16.50;;;;;;;8.39;64.64;102539.13;5034036;28;20029;-63
2022/03/15 05:32:17;;;;;;;28.73;16.25;;;;;;;8.40;63.85;102528.91;5032118;28;20029;-64
2022/03/15 05:34:43;;;;;;;23.98;14.65;;;;;;;8.42;63.50;102527.69;5033697;28;20030;-64
2022/03/15 05:37:08;;;;;;;25.77;14.82;;;;;;;8.42;63.57;102526.81;5033920;28;20032;-64
2022/03/15 05:39:34;;;;;;;18.60;12.68;;;;;;;8.40;63.89;102521.47;5033512;28;20095;-63
2022/03/15 05:42:00;;;;;;;19.58;13.07;;;;;;;8.45;63.78;102513.44;5033670;28;20025;-64
2022/03/15 05:44:28;;;;;;;19.80;13.45;;;;;;;8.41;63.92;102516.78;5034185;28;20091;-63
2022/03/15 05:46:57;;;;;;;20.02;13.65;;;;;;;8.45;63.97;102515.34;5033509;28;20398;-63
2022/03/15 05:49:25;;;;;;;20.45;13.48;;;;;;;8.50;63.59;102513.69;5033393;28;20044;-63
2022/03/15 05:51:50;;;;;;;18.90;12.70;;;;;;;8.49;63.28;102512.00;5020828;28;20121;-64
2022/03/15 05:54:15;;;;;;;19.52;13.13;;;;;;;8.51;63.18;102509.03;5029044;28;20973;-64
2022/03/15 05:56:41;;;;;;;24.58;13.73;;;;;;;8.53;62.69;102510.53;5032708;28;20039;-65
2022/03/15 05:59:08;;;;;;;17.17;12.90;;;;;;;8.54;62.84;102506.72;5034065;28;20127;-62
2022/03/15 06:01:36;;;;;;;21.58;13.05;;;;;;;8.51;62.91;102501.56;5031507;28;20052;-62
2022/03/15 06:04:01;;;;;;;21.58;14.30;;;;;;;8.52;62.73;102507.97;5032762;28;20021;-65
2022/03/15 06:06:26;;;;;;;23.65;14.07;;;;;;;8.54;62.77;102505.88;5033579;28;20109;-65
2022/03/15 06:08:52;;;;;;;25.10;13.45;;;;;;;8.54;62.78;102512.25;5032919;28;20469;-64
2022/03/15 06:11:19;;;;;;;23.10;14.02;;;;;;;8.56;62.84;102504.59;5032679;28;20087;-64
2022/03/15 06:13:45;;;;;;;20.63;12.93;;;;;;;8.54;62.82;102508.63;5033713;28;20033;-64
2022/03/15 06:16:11;;;;;;;23.23;13.30;;;;;;;8.57;62.76;102508.25;5032621;28;20070;-63
2022/03/15 06:18:37;;;;;;;29.40;13.90;;;;;;;8.51;63.13;102504.34;5032649;28;20021;-64
2022/03/15 06:21:03;;;;;;;27.60;13.52;;;;;;;8.47;62.82;102505.78;5032902;28;20060;-64
2022/03/15 06:23:28;;;;;;;23.17;14.23;;;;;;;8.43;64.06;102510.00;5032629;28;20087;-64
2022/03/15 06:26:03;;;;;;;22.75;13.20;;;;;;;8.43;62.88;102498.94;5022936;28;20022;-64
2022/03/15 06:28:28;;;;;;;25.27;13.65;;;;;;;8.45;62.95;102495.97;5028672;28;20058;-63
2022/03/15 06:30:54;;;;;;;23.40;14.68;;;;;;;8.47;63.41;102504.94;5023956;28;20060;-64
2022/03/15 06:33:19;;;;;;;24.95;13.23;;;;;;;8.51;63.38;102501.56;5024744;28;20112;-63
2022/03/15 06:35:46;;;;;;;28.25;13.35;;;;;;;8.48;62.82;102496.44;5022753;28;20037;-64
2022/03/15 06:38:11;;;;;;;20.55;12.63;;;;;;;8.56;62.21;102500.97;5027548;28;20120;-63
2022/03/15 06:40:37;;;;;;;26.67;12.48;;;;;;;8.53;62.10;102493.94;5024932;28;20396;-64
2022/03/15 06:43:02;;;;;;;18.85;11.82;;;;;;;8.57;62.10;102491.63;5029017;28;20037;-64
2022/03/15 06:45:28;;;;;;;27.27;12.85;;;;;;;8.61;62.14;102490.19;5029505;28;20059;-64
2022/03/15 06:47:54;;;;;;;21.75;13.57;;;;;;;8.57;61.89;102497.16;5030783;28;20145;-64
2022/03/15 06:50:20;;;;;;;22.50;13.60;;;;;;;8.65;61.40;102483.19;5024307;28;20025;-63
2022/03/15 06:52:47;;;;;;;21.50;12.77;;;;;;;8.70;61.91;102488.97;5034617;28;20029;-64
2022/03/15 06:55:13;;;;;;;21.98;12.13;;;;;;;8.73;61.25;102482.19;5022899;28;20076;-63
2022/03/15 06:57:39;;;;;;;24.15;12.90;;;;;;;8.76;61.10;102481.75;5022150;28;20079;-64
2022/03/15 07:00:11;;;;;;;19.50;13.35;;;;;;;8.78;61.64;102474.97;5024378;28;20041;-64
2022/03/15 07:02:36;;;;;;;20.30;12.20;;;;;;;8.76;60.83;102481.75;5028938;28;20033;-64
2022/03/15 07:05:02;;;;;;;18.13;12.88;;;;;;;8.79;61.18;102487.75;5028801;28;20036;-62
2022/03/15 07:07:27;;;;;;;17.23;11.65;;;;;;;8.83;61.11;102477.97;5021175;28;20049;-64
2022/03/15 07:09:54;;;;;;;14.57;10.80;;;;;;;8.81;60.95;102473.72;5011339;28;20087;-62
2022/03/15 07:12:20;;;;;;;18.35;11.38;;;;;;;8.87;60.60;102480.34;5021357;28;20061;-61
2022/03/15 07:14:45;;;;;;;20.20;12.23;;;;;;;8.87;60.56;102486.75;5018627;28;20039;-61
2022/03/15 07:17:11;;;;;;;19.48;10.20;;;;;;;8.91;60.42;102476.97;5019680;28;20040;-62
2022/03/15 07:19:37;;;;;;;17.77;10.00;;;;;;;8.91;60.15;102474.19;5011248;28;20088;-61
2022/03/15 07:22:07;;;;;;;17.95;10.52;;;;;;;8.91;59.91;102478.88;5012947;28;20034;-61
2022/03/15 07:24:35;;;;;;;18.13;10.63;;;;;;;8.89;60.82;102470.78;5017591;28;20041;-62
2022/03/15 07:27:01;;;;;;;15.10;10.48;;;;;;;8.92;59.90;102480.59;5014242;28;20041;-62
2022/03/15 07:29:26;;;;;;;21.23;10.27;;;;;;;8.89;60.73;102476.34;5019911;28;20069;-63
2022/03/15 07:31:55;;;;;;;19.58;11.30;;;;;;;8.88;60.74;102471.81;5026156;28;20504;-61
2022/03/15 07:34:21;;;;;;;16.08;10.73;;;;;;;8.95;60.42;102469.97;5022215;28;20104;-61
2022/03/15 07:36:46;;;;;;;17.35;10.45;;;;;;;8.97;60.34;102458.69;5027054;28;20026;-61
2022/03/15 07:39:12;;;;;;;17.98;11.20;;;;;;;8.97;59.56;102462.31;5023920;28;20029;-62
2022/03/15 07:41:39;;;;;;;22.15;11.15;;;;;;;8.96;59.79;102465.28;5021039;28;20820;-62
2022/03/15 07:44:06;;;;;;;19.58;10.82;;;;;;;8.96;60.37;102465.28;5022287;28;20038;-62
2022/03/15 07:46:32;;;;;;;19.95;10.88;;;;;;;8.95;59.84;102453.34;5021818;28;20032;-62
2022/03/15 07:48:58;;;;;;;15.00;10.07;;;;;;;8.94;59.95;102462.72;5022535;28;20033;-63
2022/03/15 07:51:23;;;;;;;18.30;10.48;;;;;;;8.94;59.99;102457.19;5018436;28;20038;-63
2022/03/15 07:53:48;;;;;;;19.35;10.55;;;;;;;8.95;59.82;102464.44;5029715;28;20725;-63
2022/03/15 07:56:17;;;;;;;21.90;10.60;;;;;;;8.95;60.75;102463.56;5023218;28;20114;-63
2022/03/15 07:58:42;;;;;;;22.80;10.85;;;;;;;8.97;60.37;102458.69;5029528;28;20042;-63
2022/03/15 08:01:08;;;;;;;18.10;10.85;;;;;;;8.99;60.08;102459.34;5030155;28;20079;-66
2022/03/15 08:03:33;;;;;;;19.88;10.45;;;;;;;9.01;60.33;102451.69;5030548;28;20041;-64
2022/03/15 08:05:59;;;;;;;16.88;9.43;;;;;;;9.01;59.96;102454.47;5020812;28;20477;-63
2022/03/15 08:08:28;;;;;;;21.42;9.60;;;;;;;8.99;60.25;102448.25;5028676;28;20048;-63
2022/03/15 08:10:53;;;;;;;18.00;9.23;;;;;;;9.03;59.98;102446.78;5021612;28;20030;-64
2022/03/15 08:13:18;;;;;;;14.50;9.38;;;;;;;9.07;60.21;102442.56;5027387;28;20048;-64
2022/03/15 08:15:44;;;;;;;18.98;9.48;;;;;;;9.10;59.59;102445.78;5032742;28;20134;-63
2022/03/15 08:18:09;;;;;;;14.05;8.95;;;;;;;9.10;59.97;102440.22;5035210;28;20029;-63
2022/03/15 08:20:41;;;;;;;14.13;9.20;;;;;;;9.14;60.10;102442.59;5028893;28;20042;-64
2022/03/15 08:23:07;;;;;;;15.77;8.95;;;;;;;9.10;60.29;102433.84;5026933;28;20400;-64
2022/03/15 08:25:33;;;;;;;18.13;9.52;;;;;;;9.15;59.76;102438.75;5032101;28;20033;-63
2022/03/15 08:28:00;;;;;;;14.48;8.77;;;;;;;9.13;59.54;102427.91;5032367;28;20025;-63
2022/03/15 08:30:26;;;;;;;12.68;9.13;;;;;;;9.22;60.18;102428.56;5035692;28;20034;-62
2022/03/15 08:32:52;;;;;;;20.30;8.93;;;;;;;9.24;59.95;102429.25;5032194;28;20033;-63
2022/03/15 08:35:18;;;;;;;19.52;10.00;;;;;;;9.28;59.40;102425.84;5030919;28;20032;-63
2022/03/15 08:37:50;;;;;;;22.10;9.23;;;;;;;9.28;59.73;102427.75;5026499;28;20056;-63
2022/03/15 08:40:20;;;;;;;14.75;8.13;;;;;;;9.25;59.39;102419.84;5040281;28;20025;-62
2022/03/15 08:42:48;;;;;;;12.65;8.30;;;;;;;9.25;59.83;102420.72;5030047;28;20037;-63
2022/03/15 08:45:15;;;;;;;12.93;7.93;;;;;;;9.27;59.67;102423.25;5029799;28;20227;-63
2022/03/15 08:47:41;;;;;;;12.43;7.70;;;;;;;9.29;59.74;102422.00;5029049;28;20037;-63
2022/03/15 08:50:08;;;;;;;15.95;7.78;;;;;;;9.30;59.16;102420.94;5029319;28;20389;-63
2022/03/15 08:52:34;;;;;;;18.30;10.68;;;;;;;9.29;59.91;102426.69;5032203;28;20111;-62
2022/03/15 08:55:06;;;;;;;18.50;8.25;;;;;;;9.31;59.52;102419.91;5030941;28;20038;-61
2022/03/15 08:57:32;;;;;;;15.90;7.95;;;;;;;9.37;59.66;102415.44;5034745;28;20033;-61
2022/03/15 08:59:58;;;;;;;13.07;7.93;;;;;;;9.36;59.22;102413.72;5027812;28;20534;-61
2022/03/15 09:02:23;;;;;;;17.13;9.35;;;;;;;9.38;59.34;102406.03;5027351;28;20502;-61
2022/03/15 09:04:49;;;;;;;15.55;8.40;;;;;;;9.41;59.16;102411.19;5025809;28;20128;-61
2022/03/15 09:07:14;;;;;;;15.15;7.90;;;;;;;9.43;59.36;102410.97;5028371;28;20044;-61
2022/03/15 09:09:42;;;;;;;13.93;7.82;;;;;;;9.42;59.52;102401.78;5029596;28;20120;-61
2022/03/15 09:12:07;;;;;;;13.55;7.35;;;;;;;9.44;59.14;102404.38;5028385;28;20412;-61
2022/03/15 09:14:33;;;;;;;15.93;8.15;;;;;;;9.45;59.57;102403.31;5025039;28;20114;-61
2022/03/15 09:17:00;;;;;;;20.45;8.15;;;;;;;9.48;59.49;102398.22;5029740;28;20025;-61
2022/03/15 09:19:26;;;;;;;21.40;11.18;;;;;;;9.44;59.66;102402.47;5027759;28;20033;-61
2022/03/15 09:21:51;;;;;;;17.85;9.05;;;;;;;9.44;59.27;102408.00;5020219;28;20086;-61
2022/03/15 09:24:17;;;;;;;15.13;8.02;;;;;;;9.46;59.05;102410.56;5020980;28;20049;-61
2022/03/15 09:26:42;;;;;;;13.80;7.10;;;;;;;9.49;59.04;102405.47;5021689;28;20053;-61
2022/03/15 09:29:12;;;;;;;12.27;8.02;;;;;;;9.47;59.89;102407.59;5010105;28;20437;-61
2022/03/15 09:31:40;;;;;;;16.83;8.25;;;;;;;9.48;59.03;102408.44;5022949;28;20037;-61
2022/03/15 09:34:05;;;;;;;13.65;7.15;;;;;;;9.47;59.16;102406.72;5028464;28;20469;-61
2022/03/15 09:36:31;;;;;;;15.13;8.07;;;;;;;9.54;58.82;102411.22;5027760;28;20087;-62
2022/03/15 09:38:57;;;;;;;17.55;8.18;;;;;;;9.56;58.68;102405.50;5012879;28;20483;-61
2022/03/15 09:41:26;;;;;;;17.38;8.20;;;;;;;9.56;59.24;102409.09;5016041;28;20030;-61
2022/03/15 09:43:54;;;;;;;13.00;7.10;;;;;;;9.58;59.01;102406.97;5017414;28;20053;-61
2022/03/15 09:46:21;;;;;;;13.68;7.20;;;;;;;9.62;59.24;102406.56;5027271;28;20479;-61
2022/03/15 09:48:51;;;;;;;17.05;7.65;;;;;;;9.61;59.55;102407.63;5027103;28;20033;-61
2022/03/15 09:51:18;;;;;;;18.77;8.27;;;;;;;9.65;59.95;102401.44;5026036;28;20491;-61
2022/03/15 09:53:44;;;;;;;17.35;7.45;;;;;;;9.64;59.80;102404.44;5026544;28;20041;-60
2022/03/15 09:56:16;;;;;;;13.70;7.97;;;;;;;9.69;59.30;102399.97;5023015;28;20018;-62
2022/03/15 09:58:42;;;;;;;17.23;8.23;;;;;;;9.72;59.71;102398.69;5009993;28;20041;-62
2022/03/15 10:01:14;;;;;;;18.50;8.25;;;;;;;9.73;60.11;102405.94;5026021;28;20144;-62
2022/03/15 10:03:39;;;;;;;16.35;8.73;;;;;;;9.75;59.51;102395.50;5028000;28;20017;-62
2022/03/15 10:06:07;;;;;;;17.90;8.77;;;;;;;9.77;59.74;102396.16;5028935;28;20028;-62
2022/03/15 10:08:34;;;;;;;15.95;7.93;;;;;;;9.78;59.85;102397.84;5028844;28;20036;-62
2022/03/15 10:11:00;;;;;;;14.07;8.68;;;;;;;9.81;60.04;102397.44;5025298;28;20029;-62
2022/03/15 10:13:25;;;;;;;20.35;8.68;;;;;;;9.81;60.04;102380.78;5016198;28;20022;-62
2022/03/15 10:15:52;;;;;;;17.27;8.25;;;;;;;9.82;60.15;102386.16;5020854;28;20021;-62
2022/03/15 10:18:18;;;;;;;15.68;8.90;;;;;;;9.86;60.12;102388.47;5032738;28;20091;-62
2022/03/15 10:20:43;;;;;;;29.08;10.63;;;;;;;9.89;59.98;102383.38;5033112;28;20026;-61
2022/03/15 10:23:10;;;;;;;17.08;8.38;;;;;;;9.92;59.48;102377.41;5031103;28;20461;-61
2022/03/15 10:25:37;;;;;;;11.38;8.02;;;;;;;9.92;59.60;102380.16;5028052;28;20370;-62
2022/03/15 10:28:06;;;;;;;15.57;7.82;;;;;;;9.93;59.37;102370.78;5012911;28;20022;-62
2022/03/15 10:30:32;;;;;;;17.40;8.00;;;;;;;9.94;59.74;102374.41;5017508;28;20059;-62
2022/03/15 10:32:59;;;;;;;17.67;8.20;;;;;;;9.97;59.54;102369.28;5024538;28;20495;-62
2022/03/15 10:35:28;;;;;;;21.15;8.23;;;;;;;9.97;59.29;102366.50;5032455;28;20060;-62
2022/03/15 10:37:57;;;;;;;15.27;8.50;;;;;;;10.00;59.56;102356.94;5031385;28;20412;-62
2022/03/15 10:40:35;;;;;;;17.42;8.18;;;;;;;10.05;59.57;102348.81;5032286;28;20033;-62
2022/03/15 10:43:19;;;;;;;11.70;8.38;;;;;;;10.09;58.97;102350.94;5031873;28;20032;-62
2022/03/15 10:45:47;;;;;;;20.25;12.30;;;;;;;10.10;59.27;102349.03;5028966;28;20029;-62
2022/03/15 10:48:22;;;;;;;14.18;9.57;;;;;;;10.13;58.55;102344.97;5022699;28;20021;-62
2022/03/15 10:50:52;;;;;;;12.98;8.32;;;;;;;10.14;58.53;102341.13;5028152;28;20045;-62
2022/03/15 10:53:17;;;;;;;12.80;8.35;;;;;;;10.18;58.23;102339.63;5031562;28;20845;-62
2022/03/15 10:55:43;;;;;;;14.18;7.13;;;;;;;10.17;58.32;102346.25;5031889;28;20026;-62
2022/03/15 10:58:31;;;;;;;13.23;7.78;;;;;;;10.23;57.78;102337.06;5030798;28;20049;-62
2022/03/15 11:01:00;;;;;;;14.02;7.78;;;;;;;10.29;58.00;102339.84;5018088;28;20064;-62
2022/03/15 11:03:29;;;;;;;14.82;8.07;;;;;;;10.31;58.30;102331.34;5030249;28;20041;-62
2022/03/15 11:05:57;;;;;;;16.23;7.90;;;;;;;10.35;58.01;102334.53;5029294;28;20029;-62
2022/03/15 11:08:23;;;;;;;15.25;8.18;;;;;;;10.35;58.40;102327.06;5031449;28;20432;-62
2022/03/15 11:10:52;;;;;;;19.15;7.88;;;;;;;10.38;58.21;102326.63;5031751;28;20063;-62
2022/03/15 11:13:17;;;;;;;16.45;8.55;;;;;;;10.41;57.93;102323.41;5030292;28;20488;-62
2022/03/15 11:15:49;;;;;;;13.65;7.43;;;;;;;10.44;57.67;102320.19;5022175;28;20040;-62
2022/03/15 11:18:17;;;;;;;20.63;9.00;;;;;;;10.46;57.68;102320.84;5030656;28;20033;-61